sensor_id;sensor_type;location;lat;lon;timestamp;temperature;humidity
67101;DHT22;54019;61.746;16.106;2022-08-19T00:00:15;23.20;51.50
67101;DHT22;54019;61.746;16.106;2022-08-19T00:02:43;23.20;51.10
67101;DHT22;54019;61.746;16.106;2022-08-19T00:05:10;23.20;51.00
67101;DHT22;54019;61.746;16.106;2022-08-19T00:07:36;23.20;51.00
67101;DHT22;54019;61.746;16.106;2022-08-19T00:10:03;23.20;51.50
67101;DHT22;54019;61.746;16.106;2022-08-19T00:12:29;23.20;52.20
67101;DHT22;54019;61.746;16.106;2022-08-19T00:14:55;23.20;51.20
67101;DHT22;54019;61.746;16.106;2022-08-19T00:17:21;23.20;51.60
67101;DHT22;54019;61.746;16.106;2022-08-19T00:19:48;23.20;50.80
67101;DHT22;54019;61.746;16.106;2022-08-19T00:22:14;23.20;51.10
67101;DHT22;54019;61.746;16.106;2022-08-19T00:24:40;23.20;50.70
67101;DHT22;54019;61.746;16.106;2022-08-19T00:27:05;23.20;50.60
67101;DHT22;54019;61.746;16.106;2022-08-19T00:29:31;23.20;51.30
67101;DHT22;54019;61.746;16.106;2022-08-19T00:31:57;23.20;51.20
67101;DHT22;54019;61.746;16.106;2022-08-19T00:34:24;23.20;51.30
67101;DHT22;54019;61.746;16.106;2022-08-19T00:36:51;23.10;50.90
67101;DHT22;54019;61.746;16.106;2022-08-19T00:39:17;23.20;50.50
67101;DHT22;54019;61.746;16.106;2022-08-19T00:41:44;23.20;51.20
67101;DHT22;54019;61.746;16.106;2022-08-19T00:44:14;23.10;50.60
67101;DHT22;54019;61.746;16.106;2022-08-19T00:46:43;23.10;50.90
67101;DHT22;54019;61.746;16.106;2022-08-19T00:49:12;23.10;50.70
67101;DHT22;54019;61.746;16.106;2022-08-19T00:51:39;23.10;51.00
67101;DHT22;54019;61.746;16.106;2022-08-19T00:54:08;23.10;50.30
67101;DHT22;54019;61.746;16.106;2022-08-19T00:56:34;23.10;50.80
67101;DHT22;54019;61.746;16.106;2022-08-19T00:59:01;23.10;51.30
67101;DHT22;54019;61.746;16.106;2022-08-19T01:01:28;23.10;50.70
67101;DHT22;54019;61.746;16.106;2022-08-19T01:03:54;23.10;51.00
67101;DHT22;54019;61.746;16.106;2022-08-19T01:06:29;23.10;50.50
67101;DHT22;54019;61.746;16.106;2022-08-19T01:08:56;23.10;51.10
67101;DHT22;54019;61.746;16.106;2022-08-19T01:11:24;23.10;51.10
67101;DHT22;54019;61.746;16.106;2022-08-19T01:13:50;23.10;50.70
67101;DHT22;54019;61.746;16.106;2022-08-19T01:16:19;23.10;50.90
67101;DHT22;54019;61.746;16.106;2022-08-19T01:18:46;23.10;51.20
67101;DHT22;54019;61.746;16.106;2022-08-19T01:21:16;23.10;50.90
67101;DHT22;54019;61.746;16.106;2022-08-19T01:23:45;23.10;50.80
67101;DHT22;54019;61.746;16.106;2022-08-19T01:26:13;23.10;50.40
67101;DHT22;54019;61.746;16.106;2022-08-19T01:28:40;23.10;50.30
67101;DHT22;54019;61.746;16.106;2022-08-19T01:31:11;23.10;51.00
67101;DHT22;54019;61.746;16.106;2022-08-19T01:33:38;23.10;50.90
67101;DHT22;54019;61.746;16.106;2022-08-19T01:36:06;23.10;51.00
67101;DHT22;54019;61.746;16.106;2022-08-19T01:38:36;23.10;50.90
67101;DHT22;54019;61.746;16.106;2022-08-19T01:41:03;23.10;50.70
67101;DHT22;54019;61.746;16.106;2022-08-19T01:43:29;23.10;50.10
67101;DHT22;54019;61.746;16.106;2022-08-19T01:45:55;23.20;50.70
67101;DHT22;54019;61.746;16.106;2022-08-19T01:48:21;23.20;50.30
67101;DHT22;54019;61.746;16.106;2022-08-19T01:50:47;23.10;50.20
67101;DHT22;54019;61.746;16.106;2022-08-19T01:53:14;23.10;50.40
67101;DHT22;54019;61.746;16.106;2022-08-19T01:55:41;23.10;50.80
67101;DHT22;54019;61.746;16.106;2022-08-19T01:58:13;23.10;50.80
67101;DHT22;54019;61.746;16.106;2022-08-19T02:00:41;23.10;50.30
67101;DHT22;54019;61.746;16.106;2022-08-19T02:03:07;23.20;50.40
67101;DHT22;54019;61.746;16.106;2022-08-19T02:05:33;23.10;50.20
67101;DHT22;54019;61.746;16.106;2022-08-19T02:07:59;23.10;50.80
67101;DHT22;54019;61.746;16.106;2022-08-19T02:10:25;23.10;50.60
67101;DHT22;54019;61.746;16.106;2022-08-19T02:12:51;23.10;50.80
67101;DHT22;54019;61.746;16.106;2022-08-19T02:15:19;23.10;50.60
67101;DHT22;54019;61.746;16.106;2022-08-19T02:17:45;23.10;50.50
67101;DHT22;54019;61.746;16.106;2022-08-19T02:20:11;23.10;49.90
67101;DHT22;54019;61.746;16.106;2022-08-19T02:22:37;23.10;49.90
67101;DHT22;54019;61.746;16.106;2022-08-19T02:25:04;23.10;49.80
67101;DHT22;54019;61.746;16.106;2022-08-19T02:27:30;23.10;49.80
67101;DHT22;54019;61.746;16.106;2022-08-19T02:29:55;23.10;50.20
67101;DHT22;54019;61.746;16.106;2022-08-19T02:32:23;23.10;50.60
67101;DHT22;54019;61.746;16.106;2022-08-19T02:34:48;23.10;50.20
67101;DHT22;54019;61.746;16.106;2022-08-19T02:37:14;23.10;50.60
67101;DHT22;54019;61.746;16.106;2022-08-19T02:39:40;23.10;50.40
67101;DHT22;54019;61.746;16.106;2022-08-19T02:42:06;23.10;50.50
67101;DHT22;54019;61.746;16.106;2022-08-19T02:44:32;23.10;50.60
67101;DHT22;54019;61.746;16.106;2022-08-19T02:46:58;23.10;49.90
67101;DHT22;54019;61.746;16.106;2022-08-19T02:49:25;23.10;50.60
67101;DHT22;54019;61.746;16.106;2022-08-19T02:51:51;23.10;50.00
67101;DHT22;54019;61.746;16.106;2022-08-19T02:54:17;23.10;49.90
67101;DHT22;54019;61.746;16.106;2022-08-19T02:56:43;23.10;50.40
67101;DHT22;54019;61.746;16.106;2022-08-19T02:59:09;23.10;50.60
67101;DHT22;54019;61.746;16.106;2022-08-19T03:01:35;23.10;50.20
67101;DHT22;54019;61.746;16.106;2022-08-19T03:04:03;23.10;50.70
67101;DHT22;54019;61.746;16.106;2022-08-19T03:06:31;23.10;50.40
67101;DHT22;54019;61.746;16.106;2022-08-19T03:08:57;23.10;50.50
67101;DHT22;54019;61.746;16.106;2022-08-19T03:11:25;23.10;50.60
67101;DHT22;54019;61.746;16.106;2022-08-19T03:13:52;23.10;50.30
67101;DHT22;54019;61.746;16.106;2022-08-19T03:16:19;23.10;50.60
67101;DHT22;54019;61.746;16.106;2022-08-19T03:18:46;23.10;50.80
67101;DHT22;54019;61.746;16.106;2022-08-19T03:21:15;23.10;50.60
67101;DHT22;54019;61.746;16.106;2022-08-19T03:23:43;23.10;50.40
67101;DHT22;54019;61.746;16.106;2022-08-19T03:26:09;23.10;50.20
67101;DHT22;54019;61.746;16.106;2022-08-19T03:28:34;23.10;50.10
67101;DHT22;54019;61.746;16.106;2022-08-19T03:31:02;23.10;50.60
67101;DHT22;54019;61.746;16.106;2022-08-19T03:33:30;23.10;50.20
67101;DHT22;54019;61.746;16.106;2022-08-19T03:36:01;23.10;50.90
67101;DHT22;54019;61.746;16.106;2022-08-19T03:38:26;23.10;51.00
67101;DHT22;54019;61.746;16.106;2022-08-19T03:40:54;23.10;51.00
67101;DHT22;54019;61.746;16.106;2022-08-19T03:43:20;23.10;50.80
67101;DHT22;54019;61.746;16.106;2022-08-19T03:45:45;23.10;50.10
67101;DHT22;54019;61.746;16.106;2022-08-19T03:48:11;23.10;50.00
67101;DHT22;54019;61.746;16.106;2022-08-19T03:50:38;23.10;50.30
67101;DHT22;54019;61.746;16.106;2022-08-19T03:53:04;23.10;50.00
67101;DHT22;54019;61.746;16.106;2022-08-19T03:55:30;23.10;50.20
67101;DHT22;54019;61.746;16.106;2022-08-19T03:57:57;23.10;49.80
67101;DHT22;54019;61.746;16.106;2022-08-19T04:00:23;23.10;50.80
67101;DHT22;54019;61.746;16.106;2022-08-19T04:02:49;23.00;51.00
67101;DHT22;54019;61.746;16.106;2022-08-19T04:05:15;23.10;51.10
67101;DHT22;54019;61.746;16.106;2022-08-19T04:07:42;23.00;51.10
67101;DHT22;54019;61.746;16.106;2022-08-19T04:10:08;23.00;50.90
67101;DHT22;54019;61.746;16.106;2022-08-19T04:12:34;23.10;51.20
67101;DHT22;54019;61.746;16.106;2022-08-19T04:15:01;23.10;51.10
67101;DHT22;54019;61.746;16.106;2022-08-19T04:17:27;23.00;51.10
67101;DHT22;54019;61.746;16.106;2022-08-19T04:19:53;23.00;51.10
67101;DHT22;54019;61.746;16.106;2022-08-19T04:22:19;23.10;50.80
67101;DHT22;54019;61.746;16.106;2022-08-19T04:24:44;23.00;50.40
67101;DHT22;54019;61.746;16.106;2022-08-19T04:27:10;23.00;50.40
67101;DHT22;54019;61.746;16.106;2022-08-19T04:29:36;23.00;50.80
67101;DHT22;54019;61.746;16.106;2022-08-19T04:32:04;23.00;51.20
67101;DHT22;54019;61.746;16.106;2022-08-19T04:34:30;23.00;51.40
67101;DHT22;54019;61.746;16.106;2022-08-19T04:36:58;23.00;51.20
67101;DHT22;54019;61.746;16.106;2022-08-19T04:39:27;23.00;51.40
67101;DHT22;54019;61.746;16.106;2022-08-19T04:41:53;23.00;50.70
67101;DHT22;54019;61.746;16.106;2022-08-19T04:44:19;23.10;51.40
67101;DHT22;54019;61.746;16.106;2022-08-19T04:46:46;23.10;50.90
67101;DHT22;54019;61.746;16.106;2022-08-19T04:49:13;23.10;50.40
67101;DHT22;54019;61.746;16.106;2022-08-19T04:51:41;23.20;50.30
67101;DHT22;54019;61.746;16.106;2022-08-19T04:54:08;23.20;50.40
67101;DHT22;54019;61.746;16.106;2022-08-19T04:56:34;23.20;50.50
67101;DHT22;54019;61.746;16.106;2022-08-19T04:59:00;23.20;50.40
67101;DHT22;54019;61.746;16.106;2022-08-19T05:01:28;23.20;51.00
67101;DHT22;54019;61.746;16.106;2022-08-19T05:03:54;23.20;50.80
67101;DHT22;54019;61.746;16.106;2022-08-19T05:06:22;23.20;50.60
67101;DHT22;54019;61.746;16.106;2022-08-19T05:08:49;23.30;50.80
67101;DHT22;54019;61.746;16.106;2022-08-19T05:11:17;23.30;50.90
67101;DHT22;54019;61.746;16.106;2022-08-19T05:13:44;23.20;50.80
67101;DHT22;54019;61.746;16.106;2022-08-19T05:16:11;23.20;51.00
67101;DHT22;54019;61.746;16.106;2022-08-19T05:18:37;23.20;50.90
67101;DHT22;54019;61.746;16.106;2022-08-19T05:21:06;23.20;51.30
67101;DHT22;54019;61.746;16.106;2022-08-19T05:23:34;23.20;51.40
67101;DHT22;54019;61.746;16.106;2022-08-19T05:25:59;23.20;51.50
67101;DHT22;54019;61.746;16.106;2022-08-19T05:28:25;23.20;51.50
67101;DHT22;54019;61.746;16.106;2022-08-19T05:30:51;23.10;51.20
67101;DHT22;54019;61.746;16.106;2022-08-19T05:33:17;23.10;51.20
67101;DHT22;54019;61.746;16.106;2022-08-19T05:35:43;23.10;51.20
67101;DHT22;54019;61.746;16.106;2022-08-19T05:38:10;23.10;51.00
67101;DHT22;54019;61.746;16.106;2022-08-19T05:40:38;23.10;50.90
67101;DHT22;54019;61.746;16.106;2022-08-19T05:43:05;23.10;50.80
67101;DHT22;54019;61.746;16.106;2022-08-19T05:45:32;23.10;50.70
67101;DHT22;54019;61.746;16.106;2022-08-19T05:47:58;23.10;50.90
67101;DHT22;54019;61.746;16.106;2022-08-19T05:50:23;23.10;51.20
67101;DHT22;54019;61.746;16.106;2022-08-19T05:52:49;23.10;51.20
67101;DHT22;54019;61.746;16.106;2022-08-19T05:55:15;23.10;51.20
67101;DHT22;54019;61.746;16.106;2022-08-19T05:57:42;23.10;50.80
67101;DHT22;54019;61.746;16.106;2022-08-19T06:00:09;23.10;51.00
67101;DHT22;54019;61.746;16.106;2022-08-19T06:02:36;23.10;51.00
67101;DHT22;54019;61.746;16.106;2022-08-19T06:05:04;23.10;51.00
67101;DHT22;54019;61.746;16.106;2022-08-19T06:07:30;23.10;51.20
67101;DHT22;54019;61.746;16.106;2022-08-19T06:09:56;23.00;51.00
67101;DHT22;54019;61.746;16.106;2022-08-19T06:12:22;23.10;51.20
67101;DHT22;54019;61.746;16.106;2022-08-19T06:14:49;23.10;51.30
67101;DHT22;54019;61.746;16.106;2022-08-19T06:17:15;23.00;50.80
67101;DHT22;54019;61.746;16.106;2022-08-19T06:19:40;23.00;50.90
67101;DHT22;54019;61.746;16.106;2022-08-19T06:22:06;23.10;51.30
67101;DHT22;54019;61.746;16.106;2022-08-19T06:24:32;23.00;50.90
67101;DHT22;54019;61.746;16.106;2022-08-19T06:26:59;23.00;50.40
67101;DHT22;54019;61.746;16.106;2022-08-19T06:29:26;23.10;50.70
67101;DHT22;54019;61.746;16.106;2022-08-19T06:31:56;23.10;50.80
67101;DHT22;54019;61.746;16.106;2022-08-19T06:34:22;23.00;50.50
67101;DHT22;54019;61.746;16.106;2022-08-19T06:36:50;23.00;50.40
67101;DHT22;54019;61.746;16.106;2022-08-19T06:39:18;23.00;50.30
67101;DHT22;54019;61.746;16.106;2022-08-19T06:41:46;23.00;50.20
67101;DHT22;54019;61.746;16.106;2022-08-19T06:44:13;23.00;50.50
67101;DHT22;54019;61.746;16.106;2022-08-19T06:46:40;23.00;50.40
67101;DHT22;54019;61.746;16.106;2022-08-19T06:49:08;23.00;50.30
67101;DHT22;54019;61.746;16.106;2022-08-19T06:51:34;23.00;50.40
67101;DHT22;54019;61.746;16.106;2022-08-19T06:54:00;23.00;50.40
67101;DHT22;54019;61.746;16.106;2022-08-19T06:56:28;23.00;50.40
67101;DHT22;54019;61.746;16.106;2022-08-19T06:58:56;23.00;50.30
67101;DHT22;54019;61.746;16.106;2022-08-19T07:01:22;23.00;50.70
67101;DHT22;54019;61.746;16.106;2022-08-19T07:03:48;23.00;51.40
67101;DHT22;54019;61.746;16.106;2022-08-19T07:06:17;23.00;50.30
67101;DHT22;54019;61.746;16.106;2022-08-19T07:08:44;23.00;50.50
67101;DHT22;54019;61.746;16.106;2022-08-19T07:11:13;23.00;50.50
67101;DHT22;54019;61.746;16.106;2022-08-19T07:13:39;23.00;50.30
67101;DHT22;54019;61.746;16.106;2022-08-19T07:16:07;23.00;50.70
67101;DHT22;54019;61.746;16.106;2022-08-19T07:18:33;23.00;50.50
67101;DHT22;54019;61.746;16.106;2022-08-19T07:21:04;23.00;50.40
67101;DHT22;54019;61.746;16.106;2022-08-19T07:23:31;23.00;50.40
67101;DHT22;54019;61.746;16.106;2022-08-19T07:25:57;23.00;50.60
67101;DHT22;54019;61.746;16.106;2022-08-19T07:28:23;23.00;50.50
67101;DHT22;54019;61.746;16.106;2022-08-19T07:30:49;23.00;50.40
67101;DHT22;54019;61.746;16.106;2022-08-19T07:33:15;23.00;50.80
67101;DHT22;54019;61.746;16.106;2022-08-19T07:35:41;23.00;50.80
67101;DHT22;54019;61.746;16.106;2022-08-19T07:38:07;23.00;50.20
67101;DHT22;54019;61.746;16.106;2022-08-19T07:40:34;23.00;50.20
67101;DHT22;54019;61.746;16.106;2022-08-19T07:43:00;23.00;50.90
67101;DHT22;54019;61.746;16.106;2022-08-19T07:45:26;23.00;50.90
67101;DHT22;54019;61.746;16.106;2022-08-19T07:47:52;23.00;50.80
67101;DHT22;54019;61.746;16.106;2022-08-19T07:50:19;23.00;50.70
67101;DHT22;54019;61.746;16.106;2022-08-19T07:52:45;23.00;50.50
67101;DHT22;54019;61.746;16.106;2022-08-19T07:55:11;23.00;51.00
67101;DHT22;54019;61.746;16.106;2022-08-19T07:57:39;23.00;50.80
67101;DHT22;54019;61.746;16.106;2022-08-19T08:00:06;23.00;51.40
67101;DHT22;54019;61.746;16.106;2022-08-19T08:02:32;23.00;51.10
67101;DHT22;54019;61.746;16.106;2022-08-19T08:04:58;23.00;51.20
67101;DHT22;54019;61.746;16.106;2022-08-19T08:07:23;23.00;50.70
67101;DHT22;54019;61.746;16.106;2022-08-19T08:09:49;23.00;50.90
67101;DHT22;54019;61.746;16.106;2022-08-19T08:12:18;23.00;51.40
67101;DHT22;54019;61.746;16.106;2022-08-19T08:14:48;23.00;51.40
67101;DHT22;54019;61.746;16.106;2022-08-19T08:17:15;23.00;51.40
67101;DHT22;54019;61.746;16.106;2022-08-19T08:19:42;23.10;51.20
67101;DHT22;54019;61.746;16.106;2022-08-19T08:22:10;23.00;50.70
67101;DHT22;54019;61.746;16.106;2022-08-19T08:24:36;23.00;51.00
67101;DHT22;54019;61.746;16.106;2022-08-19T08:27:02;23.00;51.10
67101;DHT22;54019;61.746;16.106;2022-08-19T08:29:30;23.00;51.20
67101;DHT22;54019;61.746;16.106;2022-08-19T08:31:57;23.00;50.90
67101;DHT22;54019;61.746;16.106;2022-08-19T08:34:23;23.10;51.50
67101;DHT22;54019;61.746;16.106;2022-08-19T08:36:49;23.10;51.30
67101;DHT22;54019;61.746;16.106;2022-08-19T08:39:17;23.10;51.50
67101;DHT22;54019;61.746;16.106;2022-08-19T08:41:59;23.10;51.10
67101;DHT22;54019;61.746;16.106;2022-08-19T08:44:41;23.20;50.80
67101;DHT22;54019;61.746;16.106;2022-08-19T08:47:13;23.20;51.00
67101;DHT22;54019;61.746;16.106;2022-08-19T08:49:43;23.10;51.60
67101;DHT22;54019;61.746;16.106;2022-08-19T08:52:16;23.20;51.80
67101;DHT22;54019;61.746;16.106;2022-08-19T08:54:44;23.10;51.60
67101;DHT22;54019;61.746;16.106;2022-08-19T08:57:15;23.30;51.90
67101;DHT22;54019;61.746;16.106;2022-08-19T08:59:46;23.20;51.80
67101;DHT22;54019;61.746;16.106;2022-08-19T09:02:14;23.20;51.40
67101;DHT22;54019;61.746;16.106;2022-08-19T09:04:40;23.30;51.20
67101;DHT22;54019;61.746;16.106;2022-08-19T09:07:24;23.20;51.10
67101;DHT22;54019;61.746;16.106;2022-08-19T09:09:52;23.20;51.10
67101;DHT22;54019;61.746;16.106;2022-08-19T09:12:27;23.20;51.00
67101;DHT22;54019;61.746;16.106;2022-08-19T09:14:58;23.20;50.80
67101;DHT22;54019;61.746;16.106;2022-08-19T09:17:29;23.20;50.90
67101;DHT22;54019;61.746;16.106;2022-08-19T09:19:57;23.20;51.30
67101;DHT22;54019;61.746;16.106;2022-08-19T09:22:23;23.20;51.40
67101;DHT22;54019;61.746;16.106;2022-08-19T09:24:50;23.20;51.50
67101;DHT22;54019;61.746;16.106;2022-08-19T09:27:16;23.30;51.20
67101;DHT22;54019;61.746;16.106;2022-08-19T09:29:41;23.20;50.80
67101;DHT22;54019;61.746;16.106;2022-08-19T09:32:07;23.30;50.90
67101;DHT22;54019;61.746;16.106;2022-08-19T09:34:35;23.30;50.80
67101;DHT22;54019;61.746;16.106;2022-08-19T09:37:00;23.30;51.00
67101;DHT22;54019;61.746;16.106;2022-08-19T09:39:26;23.30;50.90
67101;DHT22;54019;61.746;16.106;2022-08-19T09:41:52;23.30;51.60
67101;DHT22;54019;61.746;16.106;2022-08-19T09:44:19;23.40;50.90
67101;DHT22;54019;61.746;16.106;2022-08-19T09:46:46;23.40;50.90
67101;DHT22;54019;61.746;16.106;2022-08-19T09:49:12;23.40;51.00
67101;DHT22;54019;61.746;16.106;2022-08-19T09:51:39;23.40;51.00
67101;DHT22;54019;61.746;16.106;2022-08-19T09:54:05;23.40;50.80
67101;DHT22;54019;61.746;16.106;2022-08-19T09:56:31;23.40;50.70
67101;DHT22;54019;61.746;16.106;2022-08-19T09:58:58;23.40;50.60
67101;DHT22;54019;61.746;16.106;2022-08-19T10:01:26;23.40;50.60
67101;DHT22;54019;61.746;16.106;2022-08-19T10:03:53;23.40;50.70
67101;DHT22;54019;61.746;16.106;2022-08-19T10:06:20;23.40;50.50
67101;DHT22;54019;61.746;16.106;2022-08-19T10:08:48;23.40;50.60
67101;DHT22;54019;61.746;16.106;2022-08-19T10:11:14;23.40;50.60
67101;DHT22;54019;61.746;16.106;2022-08-19T10:13:40;23.40;50.70
67101;DHT22;54019;61.746;16.106;2022-08-19T10:16:08;23.40;50.70
67101;DHT22;54019;61.746;16.106;2022-08-19T10:18:35;23.50;50.70
67101;DHT22;54019;61.746;16.106;2022-08-19T10:21:05;23.40;50.70
67101;DHT22;54019;61.746;16.106;2022-08-19T10:23:31;23.40;50.40
67101;DHT22;54019;61.746;16.106;2022-08-19T10:26:01;23.40;50.70
67101;DHT22;54019;61.746;16.106;2022-08-19T10:28:26;23.50;50.70
67101;DHT22;54019;61.746;16.106;2022-08-19T10:30:52;23.50;50.50
67101;DHT22;54019;61.746;16.106;2022-08-19T10:33:18;23.50;50.60
67101;DHT22;54019;61.746;16.106;2022-08-19T10:35:46;23.50;50.40
67101;DHT22;54019;61.746;16.106;2022-08-19T10:38:12;23.50;50.80
67101;DHT22;54019;61.746;16.106;2022-08-19T10:40:38;23.50;50.60
67101;DHT22;54019;61.746;16.106;2022-08-19T10:43:05;23.50;50.60
67101;DHT22;54019;61.746;16.106;2022-08-19T10:45:31;23.50;50.60
67101;DHT22;54019;61.746;16.106;2022-08-19T10:47:57;23.50;50.70
67101;DHT22;54019;61.746;16.106;2022-08-19T10:50:23;23.50;50.80
67101;DHT22;54019;61.746;16.106;2022-08-19T10:52:51;23.50;50.80
67101;DHT22;54019;61.746;16.106;2022-08-19T10:55:19;23.50;50.80
67101;DHT22;54019;61.746;16.106;2022-08-19T10:57:45;23.50;50.70
67101;DHT22;54019;61.746;16.106;2022-08-19T11:00:13;23.50;50.70
67101;DHT22;54019;61.746;16.106;2022-08-19T11:02:39;23.50;50.30
67101;DHT22;54019;61.746;16.106;2022-08-19T11:05:06;23.40;50.50
67101;DHT22;54019;61.746;16.106;2022-08-19T11:07:32;23.50;50.90
67101;DHT22;54019;61.746;16.106;2022-08-19T11:09:58;23.40;50.50
67101;DHT22;54019;61.746;16.106;2022-08-19T11:12:24;23.40;50.40
67101;DHT22;54019;61.746;16.106;2022-08-19T11:14:50;23.40;50.50
67101;DHT22;54019;61.746;16.106;2022-08-19T11:17:17;23.40;50.70
67101;DHT22;54019;61.746;16.106;2022-08-19T11:19:43;23.40;51.00
67101;DHT22;54019;61.746;16.106;2022-08-19T11:22:09;23.40;50.70
67101;DHT22;54019;61.746;16.106;2022-08-19T11:24:35;23.40;50.60
67101;DHT22;54019;61.746;16.106;2022-08-19T11:27:05;23.40;50.60
67101;DHT22;54019;61.746;16.106;2022-08-19T11:29:32;23.40;50.60
67101;DHT22;54019;61.746;16.106;2022-08-19T11:31:58;23.30;50.60
67101;DHT22;54019;61.746;16.106;2022-08-19T11:34:27;23.40;50.60
67101;DHT22;54019;61.746;16.106;2022-08-19T11:36:53;23.40;51.40
67101;DHT22;54019;61.746;16.106;2022-08-19T11:39:21;23.30;50.70
67101;DHT22;54019;61.746;16.106;2022-08-19T11:41:47;23.40;50.60
67101;DHT22;54019;61.746;16.106;2022-08-19T11:44:13;23.40;50.70
67101;DHT22;54019;61.746;16.106;2022-08-19T11:46:41;23.40;50.50
67101;DHT22;54019;61.746;16.106;2022-08-19T11:49:07;23.30;50.60
67101;DHT22;54019;61.746;16.106;2022-08-19T11:51:35;23.30;50.70
67101;DHT22;54019;61.746;16.106;2022-08-19T11:54:01;23.30;50.50
67101;DHT22;54019;61.746;16.106;2022-08-19T11:56:28;23.40;50.50
67101;DHT22;54019;61.746;16.106;2022-08-19T11:58:54;23.40;50.50
67101;DHT22;54019;61.746;16.106;2022-08-19T12:01:22;23.40;50.40
67101;DHT22;54019;61.746;16.106;2022-08-19T12:03:51;23.40;50.30
67101;DHT22;54019;61.746;16.106;2022-08-19T12:06:19;23.40;50.30
67101;DHT22;54019;61.746;16.106;2022-08-19T12:08:47;23.30;50.40
67101;DHT22;54019;61.746;16.106;2022-08-19T12:11:13;23.30;50.40
67101;DHT22;54019;61.746;16.106;2022-08-19T12:13:40;23.40;50.40
67101;DHT22;54019;61.746;16.106;2022-08-19T12:16:07;23.30;50.50
67101;DHT22;54019;61.746;16.106;2022-08-19T12:18:33;23.40;50.50
67101;DHT22;54019;61.746;16.106;2022-08-19T12:20:59;23.30;50.70
67101;DHT22;54019;61.746;16.106;2022-08-19T12:23:25;23.30;50.60
67101;DHT22;54019;61.746;16.106;2022-08-19T12:25:52;23.40;50.80
67101;DHT22;54019;61.746;16.106;2022-08-19T12:28:18;23.40;50.90
67101;DHT22;54019;61.746;16.106;2022-08-19T12:30:45;23.40;51.10
67101;DHT22;54019;61.746;16.106;2022-08-19T12:33:11;23.40;51.20
67101;DHT22;54019;61.746;16.106;2022-08-19T12:35:40;23.40;51.20
67101;DHT22;54019;61.746;16.106;2022-08-19T12:38:05;23.40;51.30
67101;DHT22;54019;61.746;16.106;2022-08-19T12:40:31;23.40;51.40
67101;DHT22;54019;61.746;16.106;2022-08-19T12:42:59;23.40;51.30
67101;DHT22;54019;61.746;16.106;2022-08-19T12:45:24;23.40;51.30
67101;DHT22;54019;61.746;16.106;2022-08-19T12:47:50;23.40;51.10
67101;DHT22;54019;61.746;16.106;2022-08-19T12:50:16;23.50;51.30
67101;DHT22;54019;61.746;16.106;2022-08-19T12:52:42;23.40;51.60
67101;DHT22;54019;61.746;16.106;2022-08-19T12:55:08;23.40;51.70
67101;DHT22;54019;61.746;16.106;2022-08-19T12:57:35;23.40;52.30
67101;DHT22;54019;61.746;16.106;2022-08-19T13:00:06;23.40;52.60
67101;DHT22;54019;61.746;16.106;2022-08-19T13:02:32;23.50;55.00
67101;DHT22;54019;61.746;16.106;2022-08-19T13:04:58;23.60;58.20
67101;DHT22;54019;61.746;16.106;2022-08-19T13:07:24;23.70;57.80
67101;DHT22;54019;61.746;16.106;2022-08-19T13:09:51;23.80;55.40
67101;DHT22;54019;61.746;16.106;2022-08-19T13:12:17;23.80;54.20
67101;DHT22;54019;61.746;16.106;2022-08-19T13:14:43;23.90;53.70
67101;DHT22;54019;61.746;16.106;2022-08-19T13:17:10;23.80;52.50
67101;DHT22;54019;61.746;16.106;2022-08-19T13:19:36;23.90;53.00
67101;DHT22;54019;61.746;16.106;2022-08-19T13:22:02;23.80;52.50
67101;DHT22;54019;61.746;16.106;2022-08-19T13:24:28;23.80;52.90
67101;DHT22;54019;61.746;16.106;2022-08-19T13:26:53;23.80;53.30
67101;DHT22;54019;61.746;16.106;2022-08-19T13:29:19;23.90;53.30
67101;DHT22;54019;61.746;16.106;2022-08-19T13:31:45;23.90;53.00
67101;DHT22;54019;61.746;16.106;2022-08-19T13:34:13;23.90;53.10
67101;DHT22;54019;61.746;16.106;2022-08-19T13:36:39;23.90;52.60
67101;DHT22;54019;61.746;16.106;2022-08-19T13:39:06;23.90;52.40
67101;DHT22;54019;61.746;16.106;2022-08-19T13:41:32;23.90;52.40
67101;DHT22;54019;61.746;16.106;2022-08-19T13:43:58;23.90;52.20
67101;DHT22;54019;61.746;16.106;2022-08-19T13:46:24;23.90;52.20
67101;DHT22;54019;61.746;16.106;2022-08-19T13:48:50;23.90;52.20
67101;DHT22;54019;61.746;16.106;2022-08-19T13:51:17;23.90;52.10
67101;DHT22;54019;61.746;16.106;2022-08-19T13:53:44;23.90;52.00
67101;DHT22;54019;61.746;16.106;2022-08-19T13:56:11;23.90;51.90
67101;DHT22;54019;61.746;16.106;2022-08-19T13:58:38;23.90;51.90
67101;DHT22;54019;61.746;16.106;2022-08-19T14:01:05;23.90;51.90
67101;DHT22;54019;61.746;16.106;2022-08-19T14:03:31;23.90;52.00
67101;DHT22;54019;61.746;16.106;2022-08-19T14:05:58;23.90;51.80
67101;DHT22;54019;61.746;16.106;2022-08-19T14:08:25;23.80;51.60
67101;DHT22;54019;61.746;16.106;2022-08-19T14:10:51;23.90;51.60
67101;DHT22;54019;61.746;16.106;2022-08-19T14:13:19;23.80;51.60
67101;DHT22;54019;61.746;16.106;2022-08-19T14:15:46;23.80;51.60
67101;DHT22;54019;61.746;16.106;2022-08-19T14:18:12;23.90;51.60
67101;DHT22;54019;61.746;16.106;2022-08-19T14:20:38;23.90;51.70
67101;DHT22;54019;61.746;16.106;2022-08-19T14:23:04;23.90;51.70
67101;DHT22;54019;61.746;16.106;2022-08-19T14:25:32;23.90;51.90
67101;DHT22;54019;61.746;16.106;2022-08-19T14:27:59;23.90;51.60
67101;DHT22;54019;61.746;16.106;2022-08-19T14:30:26;23.90;51.80
67101;DHT22;54019;61.746;16.106;2022-08-19T14:32:52;23.90;52.10
67101;DHT22;54019;61.746;16.106;2022-08-19T14:35:19;23.90;51.70
67101;DHT22;54019;61.746;16.106;2022-08-19T14:37:45;23.90;51.40
67101;DHT22;54019;61.746;16.106;2022-08-19T14:40:12;23.90;51.60
67101;DHT22;54019;61.746;16.106;2022-08-19T14:42:40;23.90;51.50
67101;DHT22;54019;61.746;16.106;2022-08-19T14:45:07;23.90;51.50
67101;DHT22;54019;61.746;16.106;2022-08-19T14:47:33;23.80;50.90
67101;DHT22;54019;61.746;16.106;2022-08-19T14:49:59;23.80;51.30
67101;DHT22;54019;61.746;16.106;2022-08-19T14:52:25;23.80;51.30
67101;DHT22;54019;61.746;16.106;2022-08-19T14:54:51;23.80;51.30
67101;DHT22;54019;61.746;16.106;2022-08-19T14:57:17;23.80;51.40
67101;DHT22;54019;61.746;16.106;2022-08-19T14:59:44;23.80;51.40
67101;DHT22;54019;61.746;16.106;2022-08-19T15:02:11;23.90;51.80
67101;DHT22;54019;61.746;16.106;2022-08-19T15:04:37;23.90;51.90
67101;DHT22;54019;61.746;16.106;2022-08-19T15:07:03;23.90;52.40
67101;DHT22;54019;61.746;16.106;2022-08-19T15:09:29;24.00;52.60
67101;DHT22;54019;61.746;16.106;2022-08-19T15:11:55;24.00;52.40